Time;durP1;ratioP1;P1;durP2;ratioP2;P2;SDS_P1;SDS_P2;PMS_P1;PMS_P2;Temp;Humidity;BMP_temperature;BMP_pressure;BME280_temperature;BME280_humidity;BME280_pressure;Samples;Min_cycle;Max_cycle;Signal;HPM_P1;HPM_P2
2022/03/17 00:02:23;;;;;;;;;2.00;2.00;;;;;21.27;41.22;101857.13;5060201;28;51186;-48
2022/03/17 00:04:49;;;;;;;;;3.50;2.00;;;;;21.27;41.26;101859.88;5063898;28;51188;-49
2022/03/17 00:07:14;;;;;;;;;0.75;0.75;;;;;21.26;41.49;101860.09;5060161;28;51146;-47
2022/03/17 00:09:40;;;;;;;;;1.75;1.75;;;;;21.24;41.57;101871.25;5069275;28;51433;-46
2022/03/17 00:12:06;;;;;;;;;2.50;2.50;;;;;21.23;41.19;101869.56;5063116;28;51009;-45
2022/03/17 00:14:31;;;;;;;;;2.00;2.00;;;;;21.21;41.56;101882.69;5065455;27;51160;-45
2022/03/17 00:16:57;;;;;;;;;2.25;2.00;;;;;21.21;41.58;101879.94;5064718;27;51299;-45
2022/03/17 00:19:22;;;;;;;;;2.00;2.00;;;;;21.20;41.09;101881.00;5064681;28;51222;-51
2022/03/17 00:21:47;;;;;;;;;1.00;1.00;;;;;21.19;41.49;101887.56;5065217;28;51232;-45
2022/03/17 00:24:13;;;;;;;;;3.75;3.00;;;;;21.18;40.99;101874.00;5063451;28;51033;-47
2022/03/17 00:26:38;;;;;;;;;1.50;1.50;;;;;21.17;41.54;101886.91;5067095;28;51605;-46
2022/03/17 00:29:07;;;;;;;;;1.75;1.75;;;;;21.17;41.05;101891.59;5070239;27;51424;-46
2022/03/17 00:31:35;;;;;;;;;2.00;2.00;;;;;21.16;41.67;101903.66;5064346;27;51209;-45
2022/03/17 00:34:00;;;;;;;;;1.00;1.00;;;;;21.15;41.09;101907.44;5061823;27;51178;-50
2022/03/17 00:36:25;;;;;;;;;3.00;2.00;;;;;21.14;41.31;101905.75;5063495;28;51053;-45
2022/03/17 00:38:50;;;;;;;;;3.00;2.50;;;;;21.11;41.40;101909.75;5063388;28;51121;-48
2022/03/17 00:41:16;;;;;;;;;2.00;1.00;;;;;21.12;41.14;101910.59;5060585;27;51986;-47
2022/03/17 00:43:41;;;;;;;;;3.00;3.00;;;;;21.11;41.03;101925.44;5063902;28;51193;-45
2022/03/17 00:46:07;;;;;;;;;2.00;2.00;;;;;21.09;41.48;101911.88;5060829;28;51218;-47
2022/03/17 00:48:32;;;;;;;;;2.00;2.00;;;;;21.09;41.41;101913.78;5069203;28;51207;-47
2022/03/17 00:50:57;;;;;;;;;2.00;2.00;;;;;21.08;41.17;101932.22;5060351;28;51719;-48
2022/03/17 00:53:23;;;;;;;;;4.75;3.00;;;;;21.08;41.19;101934.13;5059609;28;51233;-46
2022/03/17 00:55:48;;;;;;;;;3.75;2.25;;;;;21.06;41.46;101928.81;5063205;28;51701;-49
2022/03/17 00:58:14;;;;;;;;;3.00;1.00;;;;;21.06;41.60;101928.81;5072324;28;51361;-50
2022/03/17 01:00:39;;;;;;;;;2.75;2.75;;;;;21.05;41.46;101938.13;5061787;28;51758;-48
2022/03/17 01:03:05;;;;;;;;;4.50;3.00;;;;;21.04;40.97;101942.75;5062943;27;51155;-49
2022/03/17 01:05:30;;;;;;;;;2.25;2.25;;;;;21.04;41.24;101955.69;5059103;27;51007;-48
2022/03/17 01:07:56;;;;;;;;;1.75;1.75;;;;;21.03;41.05;101951.22;5064980;28;51133;-51
2022/03/17 01:10:22;;;;;;;;;2.25;2.25;;;;;21.02;41.00;101955.03;5065311;28;51806;-50
2022/03/17 01:12:48;;;;;;;;;3.00;3.00;;;;;21.02;41.17;101955.03;5070491;28;51447;-48
2022/03/17 01:15:15;;;;;;;;;5.00;3.75;;;;;21.00;41.42;101949.72;5066769;27;51064;-52
2022/03/17 01:17:40;;;;;;;;;2.50;2.50;;;;;21.00;41.05;101959.91;5063224;27;51212;-46
2022/03/17 01:20:07;;;;;;;;;2.00;2.00;;;;;20.99;41.03;101961.78;5063033;28;51807;-51
2022/03/17 01:22:33;;;;;;;;;4.75;3.00;;;;;20.99;41.54;101955.44;5068109;28;51382;-49
2022/03/17 01:24:59;;;;;;;;;2.00;2.00;;;;;20.98;41.01;101968.38;5069023;27;51322;-49
2022/03/17 01:27:25;;;;;;;;;3.00;3.00;;;;;20.98;41.21;101970.28;5059279;27;51190;-45
2022/03/17 01:29:51;;;;;;;;;2.00;2.00;;;;;20.98;41.05;101975.78;5069695;27;51098;-50
2022/03/17 01:32:17;;;;;;;;;2.00;2.00;;;;;20.98;41.27;101975.78;5061921;28;51191;-49
2022/03/17 01:34:43;;;;;;;;;3.75;3.25;;;;;20.97;41.20;101987.84;5060052;28;51135;-50
2022/03/17 01:37:09;;;;;;;;;2.00;2.00;;;;;20.96;40.97;101989.75;5060662;28;51171;-48
2022/03/17 01:39:35;;;;;;;;;3.25;3.00;;;;;20.95;41.12;101990.81;5060003;27;51881;-50
2022/03/17 01:42:04;;;;;;;;;2.00;2.00;;;;;20.94;41.25;101990.97;5070410;28;51310;-49
2022/03/17 01:44:30;;;;;;;;;2.25;2.25;;;;;20.94;41.50;101982.72;5061362;27;51224;-49
2022/03/17 01:49:40;;;;;;;;;2.00;2.00;;;;;20.93;41.15;101997.53;5062345;28;51489;-48
2022/03/17 01:52:06;;;;;;;;;4.75;3.25;;;;;20.93;41.17;101994.78;5061756;28;51102;-49
2022/03/17 01:54:33;;;;;;;;;3.75;2.00;;;;;20.92;41.15;101998.59;5061339;28;51221;-48
2022/03/17 01:56:59;;;;;;;;;4.00;3.00;;;;;20.92;41.00;102002.19;5071065;27;51421;-49
2022/03/17 01:59:27;;;;;;;;;1.50;1.50;;;;;20.91;41.12;102000.50;5060261;28;51053;-47
2022/03/17 02:01:55;;;;;;;;;2.00;2.00;;;;;20.91;41.21;102007.91;5058469;28;51976;-47
2022/03/17 02:04:22;;;;;;;;;1.00;1.00;;;;;20.90;41.03;102017.22;5063384;28;51034;-45
2022/03/17 02:06:48;;;;;;;;;2.50;2.50;;;;;20.89;41.02;102010.88;5060603;28;51150;-48
2022/03/17 02:09:13;;;;;;;;;1.25;1.25;;;;;20.89;41.45;102021.03;5063435;28;51864;-47
2022/03/17 02:14:24;;;;;;;;;4.00;4.00;;;;;20.87;41.16;102026.75;5060926;28;51131;-47
2022/03/17 02:16:51;;;;;;;;;3.00;2.25;;;;;20.87;41.34;102031.41;5066150;28;51335;-46
2022/03/17 02:19:17;;;;;;;;;4.00;2.00;;;;;20.87;41.03;102035.00;5065929;27;51426;-46
2022/03/17 02:21:44;;;;;;;;;3.00;3.00;;;;;20.87;41.48;102029.50;5060429;28;51186;-45
2022/03/17 02:26:59;;;;;;;;;3.00;3.00;;;;;20.87;41.22;102047.91;5064979;28;51434;-46
2022/03/17 02:29:24;;;;;;;;;4.00;4.00;;;;;20.85;41.12;102047.28;5073605;27;52784;-46
2022/03/17 02:31:50;;;;;;;;;3.50;2.25;;;;;20.85;41.22;102053.63;5057894;28;51170;-47
2022/03/17 02:34:19;;;;;;;;;2.75;2.75;;;;;20.85;41.41;102055.53;5063994;28;51562;-49
2022/03/17 02:36:50;;;;;;;;;2.25;1.75;;;;;20.85;41.50;102066.53;5062810;28;51433;-46
2022/03/17 02:39:17;;;;;;;;;5.50;2.00;;;;;20.83;41.36;102049.34;5063093;27;51218;-45
2022/03/17 02:41:42;;;;;;;;;3.00;3.00;;;;;20.83;41.44;102049.34;5069749;28;51038;-46
2022/03/17 02:44:08;;;;;;;;;3.00;1.50;;;;;20.82;41.43;102042.13;5063715;28;52686;-46
2022/03/17 02:46:34;;;;;;;;;2.75;2.75;;;;;20.82;41.21;102044.88;5064350;27;51461;-45
2022/03/17 02:48:59;;;;;;;;;2.00;2.00;;;;;20.82;41.50;102054.00;5060640;28;51105;-48
2022/03/17 02:51:24;;;;;;;;;3.50;3.50;;;;;20.80;41.46;102053.34;5061618;28;51054;-44
2022/03/17 02:53:50;;;;;;;;;3.75;3.00;;;;;20.80;41.46;102071.78;5064698;28;52786;-44
2022/03/17 02:56:15;;;;;;;;;3.00;2.75;;;;;20.80;41.39;102067.13;5067880;27;51238;-49
2022/03/17 02:58:40;;;;;;;;;2.75;2.00;;;;;20.79;41.61;102065.41;5061094;28;51811;-48
2022/03/17 03:01:06;;;;;;;;;2.00;2.00;;;;;20.79;41.48;102070.91;5065565;28;51186;-46
2022/03/17 03:03:31;;;;;;;;;3.00;3.00;;;;;20.78;41.36;102069.22;5068098;28;51222;-47
2022/03/17 03:05:56;;;;;;;;;0.00;0.00;;;;;20.77;41.06;102075.78;5060872;28;51389;-45
2022/03/17 03:08:22;;;;;;;;;2.25;2.25;;;;;20.78;41.50;102082.13;5064010;28;52889;-45
2022/03/17 03:10:47;;;;;;;;;3.75;3.75;;;;;20.76;41.39;102090.59;5063069;28;51234;-48
2022/03/17 03:13:13;;;;;;;;;2.00;2.00;;;;;20.77;41.27;102088.69;5069126;27;51237;-47
2022/03/17 03:15:38;;;;;;;;;4.00;3.75;;;;;20.74;41.01;102093.53;5069199;28;51106;-50
2022/03/17 03:18:04;;;;;;;;;3.00;3.00;;;;;20.76;41.46;102104.38;5062035;28;52062;-48
2022/03/17 03:20:30;;;;;;;;;1.00;1.00;;;;;20.74;41.48;102101.81;5072263;27;51211;-50
2022/03/17 03:22:55;;;;;;;;;3.00;3.00;;;;;20.74;41.00;102095.44;5062750;28;51375;-46
2022/03/17 03:25:21;;;;;;;;;2.00;2.00;;;;;20.74;40.95;102100.97;5061237;27;51033;-49
2022/03/17 03:27:46;;;;;;;;;2.00;2.00;;;;;20.73;41.01;102100.06;5065568;28;52920;-51
2022/03/17 03:30:13;;;;;;;;;0.00;0.00;;;;;20.72;41.40;102092.88;5066667;27;50937;-46
2022/03/17 03:32:40;;;;;;;;;3.25;2.50;;;;;20.73;41.40;102104.72;5070393;28;51154;-49
2022/03/17 03:37:50;;;;;;;;;2.00;2.00;;;;;20.72;41.30;102103.03;5064865;28;51574;-48
2022/03/17 03:40:16;;;;;;;;;1.00;1.00;;;;;20.71;40.86;102121.44;5068119;28;51183;-50
2022/03/17 03:42:41;;;;;;;;;2.00;2.00;;;;;20.68;40.99;102121.84;5065560;28;51625;-48
2022/03/17 03:45:07;;;;;;;;;1.00;1.00;;;;;20.69;40.97;102129.06;5069708;27;51175;-49
2022/03/17 03:47:32;;;;;;;;;2.25;2.25;;;;;20.69;41.02;102130.97;5063630;27;51972;-46
2022/03/17 03:49:57;;;;;;;;;2.00;2.00;;;;;20.68;40.97;102130.09;5068309;28;51062;-45
2022/03/17 03:52:22;;;;;;;;;1.00;1.00;;;;;20.69;41.23;102152.97;5061411;28;51124;-48
2022/03/17 03:54:48;;;;;;;;;1.00;1.00;;;;;20.67;40.90;102150.44;5066777;28;51184;-51
2022/03/17 03:57:13;;;;;;;;;3.50;2.50;;;;;20.67;41.03;102166.94;5071209;28;51754;-45
2022/03/17 03:59:39;;;;;;;;;1.75;1.75;;;;;20.67;41.37;102171.59;5064608;28;51168;-48
2022/03/17 04:02:09;;;;;;;;;2.75;2.75;;;;;20.68;41.32;102170.56;5069837;27;51406;-49
2022/03/17 04:04:35;;;;;;;;;2.00;2.00;;;;;20.66;41.28;102169.91;5063716;28;51172;-49
2022/03/17 04:07:06;;;;;;;;;2.00;2.00;;;;;20.66;41.06;102178.16;5061218;28;52137;-46
2022/03/17 04:09:34;;;;;;;;;1.75;1.75;;;;;20.66;40.97;102180.91;5061369;28;51250;-47
2022/03/17 04:12:00;;;;;;;;;1.50;1.50;;;;;20.65;41.31;102190.22;5071292;28;51181;-51
2022/03/17 04:14:26;;;;;;;;;2.50;2.50;;;;;20.64;40.76;102196.78;5068117;28;51166;-50
2022/03/17 04:16:52;;;;;;;;;1.00;1.00;;;;;20.63;41.14;102204.16;5068751;28;51996;-49
2022/03/17 04:19:18;;;;;;;;;1.00;1.00;;;;;20.64;41.06;102200.38;5065667;27;51057;-50
2022/03/17 04:21:45;;;;;;;;;2.00;2.00;;;;;20.62;40.95;102202.44;5063973;27;51048;-50
2022/03/17 04:24:11;;;;;;;;;1.00;1.00;;;;;20.63;41.09;102214.31;5065773;27;51082;-44
2022/03/17 04:26:36;;;;;;;;;1.25;1.25;;;;;20.62;40.86;102207.94;5064438;28;51498;-44
2022/03/17 04:29:02;;;;;;;;;1.25;1.25;;;;;20.61;41.27;102214.50;5071229;27;51381;-47
2022/03/17 04:31:29;;;;;;;;;2.00;2.00;;;;;20.61;41.15;102225.53;5064369;28;51213;-46
2022/03/17 04:33:55;;;;;;;;;1.00;1.00;;;;;20.60;41.27;102229.31;5066451;27;51360;-46
2022/03/17 04:36:21;;;;;;;;;1.25;1.25;;;;;20.60;40.81;102226.56;5064393;28;51000;-47
2022/03/17 04:38:47;;;;;;;;;2.75;0.75;;;;;20.59;40.83;102232.25;5061314;27;51337;-45
2022/03/17 04:41:12;;;;;;;;;2.00;2.00;;;;;20.59;40.88;102237.78;5066714;28;51166;-49
2022/03/17 04:43:38;;;;;;;;;3.00;3.00;;;;;20.59;41.27;102246.03;5064788;27;51316;-47
2022/03/17 04:46:04;;;;;;;;;1.00;1.00;;;;;20.57;40.83;102240.72;5059830;28;51374;-51
2022/03/17 04:48:30;;;;;;;;;1.00;0.75;;;;;20.58;40.97;102255.34;5064916;28;51207;-44
2022/03/17 04:50:56;;;;;;;;;0.75;0.75;;;;;20.55;41.14;102259.34;5060377;28;51203;-48
2022/03/17 04:53:27;;;;;;;;;1.00;1.00;;;;;20.56;40.90;102266.53;5057159;28;51215;-46
2022/03/17 04:56:05;;;;;;;;;2.00;2.00;;;;;20.57;40.73;102267.41;5071538;27;51223;-50
2022/03/17 04:58:33;;;;;;;;;2.50;2.50;;;;;20.55;40.99;102273.09;5069624;27;51268;-49
2022/03/17 05:00:59;;;;;;;;;1.00;1.00;;;;;20.55;40.71;102280.50;5067823;27;50900;-45
2022/03/17 05:03:25;;;;;;;;;1.00;1.00;;;;;20.54;41.07;102281.53;5059760;27;51205;-45
2022/03/17 05:05:50;;;;;;;;;1.75;1.75;;;;;20.54;40.79;102282.41;5067208;28;52062;-47
2022/03/17 05:08:16;;;;;;;;;2.00;0.50;;;;;20.53;40.98;102286.19;5067926;27;51132;-44
2022/03/17 05:10:42;;;;;;;;;1.75;1.00;;;;;20.53;40.74;102286.19;5065842;28;51206;-46
2022/03/17 05:13:09;;;;;;;;;2.25;1.00;;;;;20.52;40.69;102287.22;5072731;28;51106;-47
2022/03/17 05:15:36;;;;;;;;;1.00;1.00;;;;;20.52;40.71;102281.72;5078896;27;53719;-46
2022/03/17 05:18:03;;;;;;;;;1.00;1.00;;;;;20.51;40.58;102291.00;5069511;27;51340;-49
2022/03/17 05:20:28;;;;;;;;;1.25;1.25;;;;;20.51;40.85;102293.75;5072008;28;51058;-47
2022/03/17 05:22:54;;;;;;;;;3.00;1.25;;;;;20.52;40.81;102300.13;5068050;27;50986;-44
2022/03/17 05:25:20;;;;;;;;;0.25;0.25;;;;;20.50;40.72;102297.56;5062428;28;51069;-49
2022/03/17 05:27:47;;;;;;;;;1.50;1.00;;;;;20.50;40.86;102314.09;5064462;28;51302;-44
2022/03/17 05:30:14;;;;;;;;;0.75;0.50;;;;;20.49;40.48;102315.13;5068075;27;51159;-48
2022/03/17 05:32:41;;;;;;;;;1.00;1.00;;;;;20.46;40.41;102302.59;5059204;28;51128;-45
2022/03/17 05:35:08;;;;;;;;;1.00;1.00;;;;;20.48;40.85;102327.19;5067526;28;50978;-60
2022/03/17 05:37:34;;;;;;;;;1.00;1.00;;;;;20.46;40.52;102337.53;5068930;27;51320;-45
2022/03/17 05:40:02;;;;;;;;;1.75;1.75;;;;;20.46;39.78;102341.13;5071732;28;51160;-50
2022/03/17 05:42:28;;;;;;;;;3.75;3.75;;;;;20.44;39.77;102348.72;5063211;28;51426;-49
2022/03/17 05:44:54;;;;;;;;;5.50;4.00;;;;;20.42;39.30;102349.91;5073960;27;51030;-50
2022/03/17 05:47:19;;;;;;;;;3.25;3.25;;;;;20.39;38.77;102353.03;5068624;27;51060;-49
2022/03/17 05:49:45;;;;;;;;;3.00;3.00;;;;;20.35;38.82;102355.31;5064173;28;51129;-48
2022/03/17 05:52:10;;;;;;;;;6.00;5.00;;;;;20.32;38.67;102365.81;5078120;27;51166;-50
2022/03/17 05:54:35;;;;;;;;;4.50;4.00;;;;;20.30;38.36;102362.41;5063752;28;51768;-46
2022/03/17 05:57:01;;;;;;;;;9.00;5.50;;;;;20.26;38.31;102364.66;5064490;28;51170;-49
2022/03/17 05:59:26;;;;;;;;;3.00;2.00;;;;;20.24;38.39;102364.00;5062148;27;51172;-50
2022/03/17 06:01:52;;;;;;;;;3.75;3.75;;;;;20.25;38.28;102367.63;5073982;28;50989;-45
2022/03/17 06:04:17;;;;;;;;;3.00;3.00;;;;;20.30;37.89;102368.75;5065492;27;51465;-46
2022/03/17 06:06:42;;;;;;;;;3.25;3.25;;;;;20.36;38.30;102378.19;5064159;28;51127;-45
2022/03/17 06:09:07;;;;;;;;;2.00;2.00;;;;;20.43;37.82;102373.69;5066903;28;51083;-47
2022/03/17 06:11:33;;;;;;;;;1.75;1.00;;;;;20.53;38.37;102388.06;5066981;28;51084;-46
2022/03/17 06:13:59;;;;;;;;;1.50;1.00;;;;;20.60;38.36;102382.66;5060908;27;52502;-46
2022/03/17 06:16:25;;;;;;;;;1.25;1.00;;;;;20.68;38.63;102393.59;5060696;28;51465;-45
2022/03/17 06:18:50;;;;;;;;;0.00;0.00;;;;;20.77;38.32;102399.88;5063971;28;51086;-47
2022/03/17 06:21:16;;;;;;;;;2.00;2.00;;;;;20.83;38.42;102405.47;5063031;28;51027;-44
2022/03/17 06:23:43;;;;;;;;;1.00;1.00;;;;;20.92;38.61;102411.75;5064609;27;51915;-49
2022/03/17 06:26:09;;;;;;;;;1.00;1.00;;;;;20.98;38.16;102413.78;5059593;28;51273;-46
2022/03/17 06:28:34;;;;;;;;;2.00;0.75;;;;;21.05;38.45;102412.00;5060339;27;51978;-49
2022/03/17 06:31:01;;;;;;;;;1.00;1.00;;;;;21.14;38.44;102437.53;5059695;28;51297;-46
2022/03/17 06:33:26;;;;;;;;;0.25;0.25;;;;;21.19;38.51;102433.19;5062751;27;51999;-49
2022/03/17 06:35:52;;;;;;;;;0.75;0.75;;;;;21.26;38.45;102425.06;5073357;28;51195;-46
2022/03/17 06:38:17;;;;;;;;;0.00;0.00;;;;;21.32;38.41;102440.81;5071958;27;51455;-46
2022/03/17 06:40:42;;;;;;;;;1.00;1.00;;;;;21.37;38.28;102445.78;5060891;28;51212;-50
2022/03/17 06:43:08;;;;;;;;;0.50;0.50;;;;;21.36;39.14;102444.03;5066493;28;51190;-46
2022/03/17 06:45:33;;;;;;;;;0.00;0.00;;;;;21.31;39.23;102450.13;5060174;28;52846;-48
2022/03/17 06:47:59;;;;;;;;;0.25;0.25;;;;;21.26;39.63;102463.66;5064552;28;51387;-49
2022/03/17 06:50:25;;;;;;;;;1.00;0.00;;;;;21.21;40.20;102469.66;5062372;28;51317;-47
2022/03/17 06:52:51;;;;;;;;;0.00;0.00;;;;;21.18;40.44;102483.84;5063140;28;51653;-48
2022/03/17 06:55:17;;;;;;;;;2.25;1.00;;;;;21.13;40.07;102483.53;5065976;28;51427;-46
2022/03/17 06:57:43;;;;;;;;;0.50;0.50;;;;;21.07;40.63;102481.53;5063544;27;51187;-51
2022/03/17 07:00:10;;;;;;;;;1.00;1.00;;;;;21.05;40.97;102486.38;5065244;27;51202;-48
2022/03/17 07:02:36;;;;;;;;;1.00;1.00;;;;;21.01;41.03;102487.78;5068206;28;52109;-51
2022/03/17 07:05:03;;;;;;;;;0.50;0.50;;;;;21.01;41.23;102493.28;5073048;27;51080;-48
2022/03/17 07:07:28;;;;;;;;;4.25;3.25;;;;;21.04;40.68;102507.53;5062977;28;51405;-49
2022/03/17 07:09:54;;;;;;;;;4.25;3.00;;;;;21.10;41.00;102508.72;5068455;28;51229;-50
2022/03/17 07:12:19;;;;;;;;;3.25;3.25;;;;;21.16;40.74;102513.50;5072507;28;51913;-45
2022/03/17 07:14:45;;;;;;;;;3.00;3.00;;;;;21.24;41.12;102512.53;5074380;28;51080;-50
2022/03/17 07:17:10;;;;;;;;;3.50;3.00;;;;;21.30;41.28;102522.84;5066955;27;51319;-47
2022/03/17 07:19:35;;;;;;;;;3.00;2.00;;;;;21.31;40.88;102525.41;5074380;27;50989;-46
2022/03/17 07:22:02;;;;;;;;;5.25;3.00;;;;;21.29;40.76;102527.50;5065024;27;51217;-46
2022/03/17 07:24:28;;;;;;;;;4.00;3.00;;;;;21.26;41.58;102527.88;5060989;27;51185;-46
2022/03/17 07:26:53;;;;;;;;;5.50;4.50;;;;;21.22;41.19;102542.19;5054478;28;51432;-46
2022/03/17 07:29:19;;;;;;;;;2.75;2.75;;;;;21.20;40.72;102549.78;5062774;27;51503;-49
2022/03/17 07:31:44;;;;;;;;;6.25;2.75;;;;;21.19;41.06;102546.16;5063969;28;51054;-45
2022/03/17 07:34:10;;;;;;;;;2.25;2.00;;;;;21.21;40.47;102565.28;5064369;28;51096;-47
2022/03/17 07:36:36;;;;;;;;;2.00;2.00;;;;;21.22;40.42;102573.34;5068739;28;51061;-47
2022/03/17 07:39:02;;;;;;;;;2.75;2.50;;;;;21.23;40.18;102574.22;5073397;28;52903;-47
2022/03/17 07:41:28;;;;;;;;;3.00;3.00;;;;;21.25;40.30;102572.97;5073227;28;51076;-48
2022/03/17 07:43:54;;;;;;;;;2.00;2.00;;;;;21.27;40.53;102576.47;5073545;27;51372;-47
2022/03/17 07:46:19;;;;;;;;;2.25;2.00;;;;;21.27;40.00;102581.13;5071817;28;51185;-45
2022/03/17 07:48:45;;;;;;;;;3.00;3.00;;;;;21.27;40.45;102579.22;5072728;28;51309;-47
2022/03/17 07:51:11;;;;;;;;;2.75;2.00;;;;;21.27;39.90;102581.13;5072726;28;51966;-45
2022/03/17 07:53:38;;;;;;;;;1.00;1.00;;;;;21.29;39.97;102579.03;5072692;27;51522;-44
2022/03/17 07:56:05;;;;;;;;;3.00;3.00;;;;;21.27;39.62;102581.97;5065914;28;51211;-45
2022/03/17 07:58:32;;;;;;;;;1.00;1.00;;;;;21.26;39.57;102585.78;5070800;28;51302;-44
2022/03/17 08:01:00;;;;;;;;;1.00;1.00;;;;;21.26;39.60;102601.44;5058446;28;52105;-44
2022/03/17 08:03:26;;;;;;;;;2.00;2.00;;;;;21.24;39.44;102600.72;5071586;28;51282;-48
2022/03/17 08:05:52;;;;;;;;;1.25;1.25;;;;;21.21;39.54;102598.34;5057261;28;51047;-47
2022/03/17 08:08:18;;;;;;;;;3.00;1.25;;;;;21.19;39.32;102600.44;5058322;28;51214;-47
2022/03/17 08:10:43;;;;;;;;;1.50;1.50;;;;;21.16;39.04;102607.19;5056902;28;52111;-44
2022/03/17 08:13:09;;;;;;;;;6.75;4.25;;;;;21.13;39.21;102615.78;5058466;28;51057;-49
2022/03/17 08:15:38;;;;;;;;;2.50;1.50;;;;;21.12;38.49;102616.00;5057822;28;51014;-45
2022/03/17 08:18:05;;;;;;;;;3.50;2.50;;;;;21.08;38.72;102611.91;5058649;28;51192;-46
2022/03/17 08:20:30;;;;;;;;;2.75;1.25;;;;;21.06;38.41;102625.84;5057237;28;51242;-48
2022/03/17 08:22:56;;;;;;;;;2.25;2.00;;;;;21.03;38.54;102632.56;5057436;28;51164;-50
2022/03/17 08:25:22;;;;;;;;;2.00;2.00;;;;;21.00;38.13;102638.47;5060968;28;51221;-48
2022/03/17 08:27:50;;;;;;;;;3.00;2.00;;;;;20.98;38.20;102645.19;5057544;28;51188;-47
2022/03/17 08:30:15;;;;;;;;;2.00;1.00;;;;;20.95;38.36;102638.16;5087883;27;51100;-48
2022/03/17 08:32:41;;;;;;;;;1.50;1.50;;;;;20.94;38.40;102646.59;5069339;27;51106;-48
2022/03/17 08:35:07;;;;;;;;;1.75;1.00;;;;;20.92;38.24;102643.16;5056097;28;50995;-50
2022/03/17 08:37:41;;;;;;;;;1.00;1.00;;;;;20.91;38.03;102655.22;5072734;28;51269;-47
2022/03/17 08:40:07;;;;;;;;;1.00;1.00;;;;;20.88;37.74;102658.34;5055364;28;51795;-45
2022/03/17 08:42:32;;;;;;;;;1.25;1.00;;;;;20.86;37.72;102666.78;5061726;28;51340;-51
2022/03/17 08:44:58;;;;;;;;;2.00;2.00;;;;;20.85;37.96;102669.75;5077308;28;50934;-46
2022/03/17 08:50:08;;;;;;;;;2.25;2.25;;;;;20.82;37.82;102694.88;5076959;28;51024;-44
2022/03/17 08:52:33;;;;;;;;;4.00;2.75;;;;;20.79;37.73;102693.34;5077004;28;51234;-49
2022/03/17 08:54:58;;;;;;;;;2.00;2.00;;;;;20.78;37.49;102690.75;5059642;28;51033;-49
2022/03/17 08:57:24;;;;;;;;;3.00;3.00;;;;;20.77;37.65;102697.31;5070953;28;50976;-46
2022/03/17 08:59:49;;;;;;;;;2.75;2.00;;;;;20.74;37.40;102702.16;5076869;28;52332;-46
2022/03/17 09:02:14;;;;;;;;;2.00;2.00;;;;;20.73;37.58;102708.66;5085572;27;50999;-46
2022/03/17 09:04:40;;;;;;;;;2.75;2.75;;;;;20.71;37.36;102710.75;5056960;28;51016;-48
2022/03/17 09:07:06;;;;;;;;;2.25;2.25;;;;;20.72;37.13;102708.84;5065019;28;51218;-46
2022/03/17 09:09:34;;;;;;;;;2.00;2.00;;;;;20.70;37.07;102711.78;5076756;28;51575;-47
2022/03/17 09:12:05;;;;;;;;;1.50;1.50;;;;;20.67;37.27;102709.41;5076748;28;51103;-44
2022/03/17 09:14:31;;;;;;;;;3.50;2.75;;;;;20.66;37.00;102721.47;5075594;28;51088;-44
2022/03/17 09:16:56;;;;;;;;;2.75;2.00;;;;;20.66;37.10;102721.47;5075328;28;51207;-44
2022/03/17 09:19:21;;;;;;;;;4.00;2.00;;;;;20.64;37.08;102720.78;5072012;28;51036;-44
2022/03/17 09:21:47;;;;;;;;;3.00;1.00;;;;;20.64;37.21;102722.69;5076459;28;51080;-45
2022/03/17 09:24:13;;;;;;;;;2.00;1.75;;;;;20.62;37.17;102724.72;5076614;27;50967;-43
2022/03/17 09:26:38;;;;;;;;;2.25;2.25;;;;;20.62;36.94;102730.25;5075884;27;51166;-44
2022/03/17 09:29:04;;;;;;;;;1.75;1.75;;;;;20.60;37.23;102730.41;5081815;27;51673;-44
2022/03/17 09:31:30;;;;;;;;;2.00;2.00;;;;;20.59;37.06;102731.47;5096811;27;51086;-46
2022/03/17 09:33:55;;;;;;;;;3.75;2.00;;;;;20.56;36.64;102726.31;5060352;27;51096;-43
2022/03/17 09:36:21;;;;;;;;;3.50;1.25;;;;;20.58;37.12;102729.75;5056255;28;51311;-45
2022/03/17 09:41:35;;;;;;;;;2.75;2.00;;;;;20.55;37.01;102749.38;5034049;28;51271;-44
2022/03/17 09:44:02;;;;;;;;;2.25;1.50;;;;;20.55;36.75;102752.13;5057336;28;51328;-46
2022/03/17 09:46:28;;;;;;;;;1.00;1.00;;;;;20.54;36.83;102749.56;5055800;28;51165;-47
2022/03/17 09:48:55;;;;;;;;;2.25;2.25;;;;;20.53;36.90;102756.97;5071521;28;51027;-45
2022/03/17 09:51:26;;;;;;;;;1.75;1.75;;;;;20.52;36.50;102763.47;5075313;28;51316;-44
2022/03/17 09:53:53;;;;;;;;;3.00;3.00;;;;;20.52;36.30;102751.59;5069038;28;51362;-46
2022/03/17 09:56:23;;;;;;;;;4.00;3.00;;;;;20.52;36.65;102751.59;5075195;28;51104;-43
2022/03/17 09:58:53;;;;;;;;;3.00;2.00;;;;;20.49;36.95;102757.47;5074345;28;51215;-44
2022/03/17 10:01:20;;;;;;;;;1.00;1.00;;;;;20.49;36.70;102760.22;5064722;28;51410;-44
2022/03/17 10:03:46;;;;;;;;;1.75;1.75;;;;;20.49;36.77;102782.25;5067863;27;51085;-50
2022/03/17 10:06:14;;;;;;;;;3.50;3.00;;;;;20.48;36.48;102762.13;5056320;28;51108;-49
2022/03/17 10:08:41;;;;;;;;;3.75;2.00;;;;;20.45;36.97;102776.25;5055783;28;51695;-48
2022/03/17 10:11:07;;;;;;;;;2.00;2.00;;;;;20.43;37.52;102761.81;5056624;27;51326;-45
2022/03/17 10:13:43;;;;;;;;;4.50;1.00;;;;;20.41;37.54;102767.44;5059121;27;51643;-47
2022/03/17 10:16:20;;;;;;;;;2.00;2.00;;;;;20.40;37.69;102770.38;5057087;28;51169;-45
2022/03/17 10:18:55;;;;;;;;;3.00;1.75;;;;;20.37;37.78;102779.84;5058537;27;52188;-46
2022/03/17 10:21:24;;;;;;;;;1.00;1.00;;;;;20.37;38.11;102776.22;5056527;27;53477;-47
2022/03/17 10:23:55;;;;;;;;;2.00;2.00;;;;;20.35;38.40;102784.66;5059365;27;51050;-46
2022/03/17 10:26:30;;;;;;;;;3.75;2.50;;;;;20.34;38.88;102779.34;5056091;28;51224;-49
2022/03/17 10:29:19;;;;;;;;;2.75;1.25;;;;;20.33;38.33;102785.88;5061926;27;51787;-51
2022/03/17 10:32:01;;;;;;;;;1.50;1.50;;;;;20.32;38.84;102790.53;5058257;27;51199;-47
2022/03/17 10:34:33;;;;;;;;;2.50;1.50;;;;;20.31;38.94;102794.28;5062167;27;51171;-50
2022/03/17 10:37:07;;;;;;;;;1.00;1.00;;;;;20.31;39.09;102798.94;5064106;28;51420;-48
2022/03/17 10:39:44;;;;;;;;;4.75;2.00;;;;;20.30;39.51;102803.59;5064901;28;51593;-47
2022/03/17 10:42:23;;;;;;;;;1.00;1.00;;;;;20.30;39.81;102811.84;5057540;27;51359;-53
2022/03/17 10:45:03;;;;;;;;;1.00;1.00;;;;;20.29;39.47;102801.88;5058961;28;52225;-48
2022/03/17 10:47:36;;;;;;;;;2.00;2.00;;;;;20.29;39.54;102817.53;5053820;27;51150;-47
2022/03/17 10:50:07;;;;;;;;;1.00;1.00;;;;;20.29;39.78;102806.50;5054333;27;51192;-47
2022/03/17 10:52:53;;;;;;;;;2.00;1.00;;;;;20.30;39.89;102810.97;5068859;27;51142;-50
2022/03/17 10:55:28;;;;;;;;;3.00;2.00;;;;;20.29;39.67;102817.53;5061455;27;51119;-47
2022/03/17 10:58:13;;;;;;;;;1.25;1.00;;;;;20.28;40.17;102819.41;5069613;27;51760;-45
2022/03/17 11:00:49;;;;;;;;;3.00;1.25;;;;;20.28;40.34;102815.81;5058236;28;51900;-48
2022/03/17 11:03:16;;;;;;;;;1.75;1.75;;;;;20.27;40.21;102825.09;5059855;27;51175;-51
2022/03/17 11:05:42;;;;;;;;;1.00;1.00;;;;;20.27;40.19;102828.72;5064315;27;51267;-50
2022/03/17 11:08:11;;;;;;;;;1.75;1.75;;;;;20.27;40.56;102836.09;5072211;27;51412;-49
2022/03/17 11:10:39;;;;;;;;;6.50;3.75;;;;;20.27;40.19;102844.38;5064643;27;51094;-49
2022/03/17 11:13:09;;;;;;;;;1.25;1.25;;;;;20.27;40.46;102838.84;5071655;27;51300;-47
2022/03/17 11:15:38;;;;;;;;;2.00;2.00;;;;;20.27;40.61;102847.13;5063917;27;51305;-50
2022/03/17 11:18:15;;;;;;;;;2.00;2.00;;;;;20.26;40.60;102834.38;5065307;27;51238;-48
2022/03/17 11:20:41;;;;;;;;;3.00;3.00;;;;;20.25;40.62;102840.94;5069233;27;52929;-50
2022/03/17 11:23:15;;;;;;;;;2.00;2.00;;;;;20.25;40.46;102838.19;5061400;28;51172;-49
2022/03/17 11:25:55;;;;;;;;;2.00;2.00;;;;;20.24;40.76;102842.81;5059969;27;51312;-49
2022/03/17 11:28:34;;;;;;;;;1.50;1.50;;;;;20.25;41.10;102847.28;5066705;28;51185;-45
2022/03/17 11:31:02;;;;;;;;;2.75;1.25;;;;;20.30;40.84;102852.25;5067040;27;52735;-44
2022/03/17 11:33:34;;;;;;;;;2.00;2.00;;;;;20.37;40.29;102839.53;5062448;27;51448;-47
2022/03/17 11:36:08;;;;;;;;;1.75;1.75;;;;;20.46;40.47;102853.16;5071555;28;51153;-47
2022/03/17 11:38:38;;;;;;;;;1.50;1.50;;;;;20.55;40.38;102845.75;5063153;28;51040;-45
2022/03/17 11:41:20;;;;;;;;;2.00;2.00;;;;;20.66;40.07;102853.63;5064322;28;51282;-45